Time;durP1;ratioP1;P1;durP2;ratioP2;P2;SDS_P1;SDS_P2;PMS_P1;PMS_P2;Temp;Humidity;BMP_temperature;BMP_pressure;BME280_temperature;BME280_humidity;BME280_pressure;Samples;Min_cycle;Max_cycle;Signal;HPM_P1;HPM_P2
2020/12/20 00:01:43;127725824.00;425.75;84424256.00;457397.00;1.52;788.51;;;;;25.20;37.40;;;;;;2247393;61;5909;-67
2020/12/20 00:04:11;133594000.00;445.31;96616144.00;204632.00;0.68;353.90;;;;;25.20;37.40;;;;;;2246833;61;5608;-67
2020/12/20 00:06:42;9572036.00;31.91;48454.32;487166.00;1.62;839.73;;;;;25.20;37.40;;;;;;2249598;61;7196;-67
2020/12/20 00:09:14;130757344.00;435.86;90585632.00;355168.00;1.18;612.74;;;;;25.10;37.30;;;;;;2247133;61;7305;-68
2020/12/20 00:11:42;9672348.00;32.24;49681.85;235568.00;0.79;407.13;;;;;25.10;37.30;;;;;;2245916;61;7377;-67
2020/12/20 00:14:28;131598288.00;438.66;92346408.00;162602.00;0.54;281.52;;;;;25.20;37.40;;;;;;2247027;61;7079;-68
2020/12/20 00:16:57;9348298.00;31.16;45797.82;310266.00;1.03;535.57;;;;;25.20;37.30;;;;;;2249514;61;6107;-68
2020/12/20 00:19:23;10071431.00;33.57;54795.05;291587.00;0.97;503.46;;;;;25.20;37.30;;;;;;2246201;61;6957;-67
2020/12/20 00:21:58;125552664.00;418.51;80183928.00;204135.00;0.68;353.04;;;;;25.20;37.30;;;;;;2248697;61;7240;-67
2020/12/20 00:24:25;9684113.00;32.28;49827.30;215613.00;0.72;372.79;;;;;25.20;37.30;;;;;;2242597;61;6962;-67
2020/12/20 00:26:51;9778631.00;32.60;51007.46;165401.00;0.55;286.34;;;;;25.20;37.30;;;;;;2246025;61;7200;-67
2020/12/20 00:29:18;126346288.00;421.15;81715584.00;374109.00;1.25;645.30;;;;;25.20;37.20;;;;;;2247276;61;7256;-67
2020/12/20 00:31:45;9679626.00;32.27;49771.79;299668.00;1.00;517.35;;;;;25.20;37.20;;;;;;2245486;61;7818;-67
2020/12/20 00:34:12;10000338.00;33.33;53856.91;308346.00;1.03;532.27;;;;;25.10;37.20;;;;;;2245932;61;5694;-67
2020/12/20 00:36:42;9146905.00;30.49;43500.93;233363.00;0.78;403.33;;;;;25.20;37.30;;;;;;2247538;61;7261;-67
2020/12/20 00:39:09;129996280.00;433.32;89011528.00;199687.00;0.67;345.38;;;;;25.10;37.20;;;;;;2245413;61;7255;-67
2020/12/20 00:41:35;9476180.00;31.59;47302.54;256672.00;0.86;443.43;;;;;25.10;37.20;;;;;;2246521;61;7272;-67
2020/12/20 00:44:01;9502744.00;31.68;47619.66;248028.00;0.83;428.56;;;;;25.10;37.20;;;;;;2243227;61;6628;-67
2020/12/20 00:46:27;125980888.00;419.94;81007968.00;264322.00;0.88;456.58;;;;;25.10;37.30;;;;;;2246529;61;7048;-67
2020/12/20 00:48:57;9418499.00;31.39;46619.35;277637.00;0.93;479.47;;;;;25.10;37.30;;;;;;2242871;61;7205;-67
2020/12/20 00:51:23;125595008.00;418.65;80265160.00;293534.00;0.98;506.80;;;;;25.10;37.20;;;;;;2242770;61;5585;-67
2020/12/20 00:53:50;125791296.00;419.30;80642440.00;239638.00;0.80;414.13;;;;;25.10;37.80;;;;;;2246359;61;5634;-67
2020/12/20 00:56:20;129401048.00;431.34;87793232.00;103864.00;0.35;180.24;;;;;25.20;37.20;;;;;;2246088;61;5758;-67
2020/12/20 00:58:47;9453867.00;31.51;47037.38;249707.00;0.83;431.45;;;;;25.10;37.20;;;;;;2250291;61;7097;-67
2020/12/20 01:01:13;9541493.00;31.80;48085.08;276808.00;0.92;478.05;;;;;25.10;37.20;;;;;;2242881;61;7196;-67
2020/12/20 01:03:40;9663387.00;32.21;49571.25;332008.00;1.11;572.94;;;;;25.10;37.30;;;;;;2250385;61;5821;-67
2020/12/20 01:06:06;8977136.00;29.92;41632.57;239980.00;0.80;414.72;;;;;25.10;37.20;;;;;;2245684;61;6094;-67
2020/12/20 01:08:36;129578768.00;431.93;88155816.00;191578.00;0.64;331.43;;;;;25.10;37.20;;;;;;2244700;61;7473;-67
2020/12/20 01:11:05;9211403.00;30.70;44226.94;203467.00;0.68;351.89;;;;;25.10;37.20;;;;;;2246101;61;6972;-67
2020/12/20 01:13:32;9248848.00;30.83;44652.55;345282.00;1.15;595.75;;;;;25.20;37.20;;;;;;2246737;61;5688;-67
2020/12/20 01:15:58;8458251.00;28.19;36293.98;198410.00;0.66;343.19;;;;;25.10;37.40;;;;;;2242840;61;5607;-67
2020/12/20 01:18:26;125650216.00;418.83;80371152.00;346166.00;1.15;597.27;;;;;25.10;37.20;;;;;;2245623;61;7179;-66
2020/12/20 01:20:52;126483360.00;421.61;81982088.00;317850.00;1.06;548.60;;;;;25.10;37.20;;;;;;2242937;61;7365;-67
2020/12/20 01:23:18;9414705.00;31.38;46574.68;303888.00;1.01;524.60;;;;;25.10;37.20;;;;;;2249932;61;7202;-67
2020/12/20 01:25:45;8979417.00;29.93;41657.27;308814.00;1.03;533.07;;;;;25.10;37.10;;;;;;2246434;61;7242;-67
2020/12/20 01:28:11;8925723.00;29.75;41078.81;264167.00;0.88;456.31;;;;;25.10;37.20;;;;;;2239975;61;7603;-67
2020/12/20 01:30:37;125406136.00;418.02;79903240.00;157927.00;0.53;273.47;;;;;25.10;37.10;;;;;;2243487;61;7622;-67
2020/12/20 01:33:04;126113744.00;420.38;81264784.00;306369.00;1.02;528.87;;;;;25.10;37.10;;;;;;2246577;61;7386;-67
2020/12/20 01:35:31;125791568.00;419.31;80642976.00;223053.00;0.74;385.60;;;;;25.10;37.10;;;;;;2241840;61;7360;-67
2020/12/20 01:37:57;9627127.00;32.09;49125.64;380675.00;1.27;656.59;;;;;25.10;37.10;;;;;;2240301;61;7425;-67
2020/12/20 01:40:27;9256093.00;30.85;44735.26;275089.00;0.92;475.09;;;;;25.20;37.10;;;;;;2246792;61;5924;-67
2020/12/20 01:42:54;9167720.00;30.56;43734.25;402218.00;1.34;693.62;;;;;25.10;37.00;;;;;;2245090;61;5982;-67
2020/12/20 01:45:21;127735216.00;425.78;84442896.00;160460.00;0.53;277.83;;;;;25.10;37.00;;;;;;2243655;61;7128;-67
2020/12/20 01:47:48;125924568.00;419.75;80899280.00;420135.00;1.40;724.42;;;;;25.10;37.00;;;;;;2249044;61;7184;-67
2020/12/20 01:50:15;9689220.00;32.30;49890.55;249450.00;0.83;431.01;;;;;25.10;37.10;;;;;;2239749;61;7241;-67
2020/12/20 01:52:42;9212129.00;30.71;44235.16;327683.00;1.09;565.50;;;;;25.10;37.10;;;;;;2242661;61;5713;-67
2020/12/20 01:55:08;9574170.00;31.91;48480.19;136665.00;0.46;236.82;;;;;25.10;37.70;;;;;;2244478;61;7133;-67
2020/12/20 01:57:34;125385440.00;417.95;79863656.00;131567.00;0.44;228.03;;;;;25.10;37.10;;;;;;2241606;61;7152;-67
2020/12/20 02:00:08;132861064.00;442.87;95033088.00;145139.00;0.48;251.43;;;;;25.10;37.00;;;;;;2246342;61;5784;-67
2020/12/20 02:02:34;126104848.00;420.35;81247576.00;141751.00;0.47;245.59;;;;;25.10;37.00;;;;;;2248771;61;6985;-67
2020/12/20 02:05:01;9490675.00;31.64;47475.38;217202.00;0.72;375.53;;;;;25.10;37.10;;;;;;2240640;61;6902;-67
2020/12/20 02:07:31;9354597.00;31.18;45871.09;271218.00;0.90;468.44;;;;;25.10;37.10;;;;;;2238826;61;8090;-67
2020/12/20 02:09:57;9628427.00;32.09;49141.57;210321.00;0.70;363.69;;;;;25.10;37.10;;;;;;2241271;61;7076;-67
2020/12/20 02:12:27;9124155.00;30.41;43246.99;233154.00;0.78;402.97;;;;;25.10;37.10;;;;;;2245847;61;7313;-67
2020/12/20 02:14:55;8879140.00;29.60;40581.85;222900.00;0.74;385.33;;;;;25.00;37.00;;;;;;2242862;61;6954;-67
2020/12/20 02:17:21;127112192.00;423.71;83212120.00;149862.00;0.50;259.57;;;;;25.00;37.00;;;;;;2249450;61;7334;-67
2020/12/20 02:19:48;125342880.00;417.81;79782288.00;206900.00;0.69;357.80;;;;;25.10;37.00;;;;;;2243531;61;5918;-67
2020/12/20 02:22:17;8897183.00;29.66;40773.79;309351.00;1.03;533.99;;;;;25.10;37.10;;;;;;2245593;61;6420;-67
2020/12/20 02:24:44;9492708.00;31.64;47499.66;301405.00;1.00;520.34;;;;;25.10;37.00;;;;;;2248028;61;6953;-67
2020/12/20 02:27:10;8297059.00;27.66;34745.84;245909.00;0.82;424.91;;;;;25.10;37.00;;;;;;2244749;61;7254;-69
2020/12/20 02:29:37;125665072.00;418.88;80399688.00;192789.00;0.64;333.51;;;;;25.10;37.00;;;;;;2244809;61;7243;-69
2020/12/20 02:32:03;8844833.00;29.48;40218.75;143217.00;0.48;248.12;;;;;25.00;36.90;;;;;;2242167;61;7245;-69
2020/12/20 02:34:29;8614537.00;28.72;37844.19;130924.00;0.44;226.92;;;;;25.00;37.10;;;;;;2245180;61;7092;-68
2020/12/20 02:36:56;8873705.00;29.58;40524.16;207055.00;0.69;358.07;;;;;25.00;37.10;;;;;;2243838;61;5895;-68
2020/12/20 02:39:22;8973412.00;29.91;41592.27;166496.00;0.55;288.23;;;;;25.10;37.00;;;;;;2238896;61;7342;-68
2020/12/20 02:41:54;9406199.00;31.35;46474.62;194666.00;0.65;336.74;;;;;25.00;37.00;;;;;;2247717;61;5965;-68
2020/12/20 02:44:20;8744397.00;29.15;39169.79;161676.00;0.54;279.93;;;;;25.00;37.00;;;;;;2246436;61;7143;-68
2020/12/20 02:46:47;8592976.00;28.64;37627.41;119746.00;0.40;207.64;;;;;25.00;37.00;;;;;;2246416;61;7208;-67
2020/12/20 02:49:17;8864645.00;29.55;40428.14;163008.00;0.54;282.22;;;;;25.10;37.10;;;;;;2246349;61;7194;-67
2020/12/20 02:51:43;8776169.00;29.25;39499.37;233773.00;0.78;404.04;;;;;25.10;37.00;;;;;;2242357;61;7332;-67
2020/12/20 02:54:10;125119088.00;417.06;79355296.00;136263.00;0.45;236.13;;;;;25.00;37.00;;;;;;2246794;61;5589;-67
2020/12/20 02:56:42;8703271.00;29.01;38746.26;281719.00;0.94;486.49;;;;;25.10;37.00;;;;;;2245732;61;7032;-68
2020/12/20 02:59:09;132117664.00;440.39;93445216.00;89134.00;0.30;154.81;;;;;25.00;36.90;;;;;;2249099;61;7076;-67
2020/12/20 03:01:35;124861864.00;416.21;78866408.00;336735.00;1.12;581.06;;;;;25.00;37.00;;;;;;2242254;61;6866;-68
2020/12/20 03:04:02;8744550.00;29.15;39171.38;92136.00;0.31;160.00;;;;;25.00;36.90;;;;;;2244058;61;3824;-67
2020/12/20 03:06:35;132534016.00;441.78;94332328.00;238799.00;0.80;412.69;;;;;25.00;37.00;;;;;;2235173;61;7739;-67
2020/12/20 03:09:01;8809887.00;29.37;39851.41;111577.00;0.37;193.55;;;;;25.00;37.10;;;;;;2245931;61;7266;-67
2020/12/20 03:11:28;9200949.00;30.67;44108.65;329662.00;1.10;568.91;;;;;25.00;37.10;;;;;;2238500;61;5824;-67
2020/12/20 03:13:59;128858848.00;429.53;86693192.00;164055.00;0.55;284.03;;;;;25.00;37.10;;;;;;2248582;61;7659;-68
2020/12/20 03:16:25;126326824.00;421.09;81677784.00;263108.00;0.88;454.49;;;;;25.00;37.00;;;;;;2240040;61;7021;-67
2020/12/20 03:18:53;8926586.00;29.76;41088.05;185832.00;0.62;321.53;;;;;24.90;37.00;;;;;;2245889;61;7420;-67
2020/12/20 03:21:21;8355201.00;27.85;35298.37;264709.00;0.88;457.25;;;;;24.90;37.00;;;;;;2242916;61;7296;-67
2020/12/20 03:23:47;127394552.00;424.65;83768424.00;254059.00;0.85;438.93;;;;;25.00;37.10;;;;;;2241922;61;5723;-67
2020/12/20 03:26:14;8849810.00;29.50;40271.28;109333.00;0.36;189.68;;;;;24.90;37.00;;;;;;2243936;61;7103;-67
2020/12/20 03:28:44;8641711.00;28.81;38118.74;170148.00;0.57;294.52;;;;;24.90;37.10;;;;;;2246210;61;7102;-67
2020/12/20 03:31:11;125320144.00;417.73;79738848.00;269512.00;0.90;465.50;;;;;24.90;37.10;;;;;;2242401;61;7663;-67
2020/12/20 03:33:37;125572600.00;418.58;80222168.00;175617.00;0.59;303.94;;;;;24.90;37.00;;;;;;2238765;61;7488;-67
2020/12/20 03:36:03;9114879.00;30.38;43143.76;233467.00;0.78;403.51;;;;;24.90;37.10;;;;;;2246339;61;7301;-68
2020/12/20 03:38:29;8821993.00;29.41;39978.38;287079.00;0.96;495.71;;;;;24.90;37.10;;;;;;2246676;61;6958;-67
2020/12/20 03:40:56;8733045.00;29.11;39052.54;189373.00;0.63;327.63;;;;;24.90;37.00;;;;;;2248554;61;7901;-67
2020/12/20 03:43:22;125031168.00;416.77;79187976.00;207496.00;0.69;358.83;;;;;24.90;37.00;;;;;;2243658;61;8001;-67
2020/12/20 03:45:48;125556776.00;418.52;80191800.00;178161.00;0.59;308.32;;;;;24.90;37.00;;;;;;2245500;61;8127;-67
2020/12/20 03:48:15;9307312.00;31.02;45323.21;258685.00;0.86;446.89;;;;;24.90;37.00;;;;;;2243151;61;7276;-67
2020/12/20 03:50:41;8692655.00;28.98;38637.50;190211.00;0.63;329.07;;;;;24.90;37.00;;;;;;2243047;61;7131;-68
2020/12/20 03:53:07;125035328.00;416.78;79195880.00;145983.00;0.49;252.88;;;;;24.90;37.00;;;;;;2249833;61;7402;-67
2020/12/20 03:55:33;8919827.00;29.73;41015.66;217256.00;0.72;375.62;;;;;24.90;37.10;;;;;;2246976;61;5932;-67
2020/12/20 03:58:00;7817120.00;26.06;30431.39;161660.00;0.54;279.90;;;;;24.90;37.00;;;;;;2246002;61;7075;-67
2020/12/20 04:00:26;124176232.00;413.92;77573120.00;170694.00;0.57;295.46;;;;;24.90;37.00;;;;;;2246571;61;6602;-67
2020/12/20 04:02:53;124791536.00;415.97;78733112.00;135967.00;0.45;235.62;;;;;24.90;37.00;;;;;;2243189;61;7122;-67
2020/12/20 04:05:19;9212095.00;30.71;44234.78;357320.00;1.19;616.44;;;;;24.90;37.00;;;;;;2242982;61;7249;-67
2020/12/20 04:07:52;8029279.00;26.76;32285.12;249121.00;0.83;430.44;;;;;24.90;37.00;;;;;;2246818;61;7364;-68
2020/12/20 04:10:26;7754711.00;25.85;29901.85;124498.00;0.41;215.84;;;;;24.90;37.00;;;;;;2247258;61;5654;-68
2020/12/20 04:12:53;128512792.00;428.38;85995944.00;251696.00;0.84;434.87;;;;;24.90;37.00;;;;;;2242395;61;7442;-68
2020/12/20 04:15:19;8769665.00;29.23;39431.73;194021.00;0.65;335.63;;;;;24.90;37.00;;;;;;2241534;61;5882;-67
2020/12/20 04:17:46;8539220.00;28.46;37091.01;337143.00;1.12;581.76;;;;;24.90;37.10;;;;;;2239553;61;6379;-68
2020/12/20 04:20:12;125006360.00;416.69;79140792.00;259414.00;0.86;448.14;;;;;24.90;37.00;;;;;;2240118;61;5633;-67
2020/12/20 04:22:43;128992160.00;429.97;86962816.00;233828.00;0.78;404.13;;;;;24.90;37.00;;;;;;2250327;61;7203;-67
2020/12/20 04:25:09;8366470.00;27.89;35406.23;326089.00;1.09;562.76;;;;;24.90;37.10;;;;;;2245339;61;7234;-67
2020/12/20 04:27:35;8415535.00;28.05;35878.74;401209.00;1.34;691.88;;;;;24.90;37.10;;;;;;2246567;61;7595;-68
2020/12/20 04:30:03;8637761.00;28.79;38078.73;315844.00;1.05;545.15;;;;;24.80;37.10;;;;;;2237837;61;7108;-67
2020/12/20 04:32:29;126817976.00;422.73;82635104.00;338555.00;1.13;584.19;;;;;24.90;37.00;;;;;;2241202;61;7103;-67
2020/12/20 04:34:56;8709085.00;29.03;38805.92;301378.00;1.00;520.29;;;;;24.80;37.00;;;;;;2242349;61;7331;-68
2020/12/20 04:37:22;8416914.00;28.06;35892.09;205655.00;0.69;355.66;;;;;24.90;37.00;;;;;;2245199;61;7305;-67
2020/12/20 04:39:49;8867373.00;29.56;40457.04;153796.00;0.51;266.35;;;;;24.80;37.00;;;;;;2240239;61;7426;-67
2020/12/20 04:42:18;8597402.00;28.66;37671.83;235954.00;0.79;407.79;;;;;24.80;37.00;;;;;;2243202;61;7127;-67
2020/12/20 04:44:46;8327650.00;27.76;35035.73;181323.00;0.60;313.77;;;;;24.80;37.10;;;;;;2243277;61;7427;-68
2020/12/20 04:47:17;8768317.00;29.23;39417.73;276246.00;0.92;477.08;;;;;24.80;37.00;;;;;;2245199;61;7328;-67
2020/12/20 04:49:45;124827400.00;416.09;78801064.00;264991.00;0.88;457.73;;;;;24.90;37.00;;;;;;2242451;61;7691;-67
2020/12/20 04:52:12;8442802.00;28.14;36143.38;364917.00;1.22;629.50;;;;;24.80;36.90;;;;;;2245504;61;7530;-67
2020/12/20 04:54:40;9038896.00;30.13;42305.16;316291.00;1.05;545.92;;;;;24.80;36.90;;;;;;2245598;61;5456;-72
2020/12/20 04:57:07;8723671.00;29.08;38955.91;171341.00;0.57;296.58;;;;;24.80;36.90;;;;;;2243567;61;7257;-67
2020/12/20 04:59:37;9095721.00;30.32;42931.16;329274.00;1.10;568.24;;;;;24.80;36.90;;;;;;2246825;61;7361;-67
2020/12/20 05:02:07;9164406.00;30.55;43697.03;283580.00;0.95;489.69;;;;;24.80;36.90;;;;;;2243411;61;7035;-67
2020/12/20 05:04:36;126236648.00;420.79;81502824.00;328222.00;1.09;566.43;;;;;24.80;37.50;;;;;;2242831;61;5745;-67
2020/12/20 05:07:04;8744168.00;29.15;39167.43;475045.00;1.58;818.87;;;;;24.80;36.90;;;;;;2246750;61;6971;-67
2020/12/20 05:09:31;8152642.00;27.18;33401.73;287030.00;0.96;495.62;;;;;24.80;36.90;;;;;;2242120;61;7109;-67
2020/12/20 05:11:58;8053712.00;26.85;32503.99;268836.00;0.90;464.34;;;;;24.80;36.90;;;;;;2245934;61;7103;-67
2020/12/20 05:14:32;7934608.00;26.45;31447.63;201257.00;0.67;348.09;;;;;24.90;36.90;;;;;;2246903;61;6918;-67
2020/12/20 05:16:59;8112385.00;27.04;33034.18;247015.00;0.82;426.82;;;;;24.80;36.80;;;;;;2242456;61;7512;-67
2020/12/20 05:19:32;8193137.00;27.31;33774.57;219622.00;0.73;379.69;;;;;24.80;36.90;;;;;;2243236;61;7514;-67
2020/12/20 05:22:16;7828224.00;26.09;30526.35;319187.00;1.06;550.90;;;;;24.80;36.90;;;;;;2245651;61;7224;-67
2020/12/20 05:24:48;132734344.00;442.45;94761160.00;184008.00;0.61;318.39;;;;;24.80;36.90;;;;;;2247176;61;5843;-67
2020/12/20 05:27:28;8134331.00;27.11;33234.16;169744.00;0.57;293.83;;;;;24.80;36.80;;;;;;2243312;61;7175;-67
2020/12/20 05:30:14;8506022.00;28.35;36762.64;266849.00;0.89;460.93;;;;;24.80;36.80;;;;;;2249086;61;7429;-67
2020/12/20 05:32:41;8224677.00;27.42;34067.15;234368.00;0.78;405.06;;;;;24.80;36.90;;;;;;2245604;61;7272;-67
2020/12/20 05:35:11;8908716.00;29.70;40896.85;217521.00;0.73;376.08;;;;;24.80;36.90;;;;;;2245920;61;7105;-67
2020/12/20 05:37:39;127808584.00;426.03;84588632.00;357120.00;1.19;616.10;;;;;24.80;36.90;;;;;;2246259;61;6307;-67
2020/12/20 05:40:23;126943968.00;423.15;82881864.00;169447.00;0.56;293.31;;;;;24.80;36.80;;;;;;2246778;61;7115;-67
2020/12/20 05:42:59;8226757.00;27.42;34086.51;243285.00;0.81;420.40;;;;;24.80;37.40;;;;;;2248361;61;5842;-67
2020/12/20 05:45:35;8061572.00;26.87;32574.63;175312.00;0.58;303.42;;;;;24.80;36.90;;;;;;2246618;61;7085;-67
2020/12/20 05:48:24;8705433.00;29.02;38768.44;264965.00;0.88;457.69;;;;;24.70;36.80;;;;;;2247863;61;7155;-67
2020/12/20 05:50:57;8723263.00;29.08;38951.71;142554.00;0.48;246.97;;;;;24.80;36.90;;;;;;2246529;61;7431;-67
2020/12/20 05:53:28;9157474.00;30.52;43619.28;182924.00;0.61;316.52;;;;;24.80;36.90;;;;;;2243886;61;7418;-67
2020/12/20 05:56:00;8904943.00;29.68;40856.56;226451.00;0.75;391.44;;;;;24.80;36.90;;;;;;2246117;61;7169;-67
2020/12/20 05:58:31;8670023.00;28.90;38406.38;225020.00;0.75;388.98;;;;;24.80;36.80;;;;;;2246555;61;7573;-69
2020/12/20 06:01:02;7415212.00;24.72;27143.20;202584.00;0.68;350.37;;;;;24.80;36.80;;;;;;2247580;61;7410;-69
2020/12/20 06:03:29;126023008.00;420.08;81089328.00;199687.00;0.67;345.38;;;;;24.80;36.90;;;;;;2246211;61;7024;-68
2020/12/20 06:06:00;8533766.00;28.45;37036.91;183768.00;0.61;317.98;;;;;24.80;36.90;;;;;;2247849;61;7291;-67
2020/12/20 06:08:32;7721575.00;25.74;29623.55;247475.00;0.82;427.61;;;;;24.80;36.90;;;;;;2247998;61;8326;-68
2020/12/20 06:11:02;8475284.00;28.25;36460.56;173275.00;0.58;299.91;;;;;24.70;36.80;;;;;;2248917;61;6754;-68
2020/12/20 06:13:29;8170756.00;27.24;33568.12;389676.00;1.30;672.06;;;;;24.70;36.80;;;;;;2243622;61;7598;-68
2020/12/20 06:16:07;128715880.00;429.05;86404688.00;225547.00;0.75;389.89;;;;;24.70;37.20;;;;;;2248329;61;5974;-68
2020/12/20 06:18:50;8175075.00;27.25;33607.89;112669.00;0.38;195.44;;;;;24.70;37.10;;;;;;2248150;61;7195;-67
2020/12/20 06:21:25;8206707.00;27.36;33900.22;352114.00;1.17;607.49;;;;;24.70;37.10;;;;;;2245673;61;5704;-67
2020/12/20 06:23:57;8321398.00;27.74;34976.33;294970.00;0.98;509.27;;;;;24.70;37.20;;;;;;2248377;61;7328;-67
2020/12/20 06:26:32;8243436.00;27.48;34242.07;124718.00;0.42;216.22;;;;;24.70;37.40;;;;;;2247757;61;7155;-68
2020/12/20 06:29:03;8524897.00;28.42;36949.06;147370.00;0.49;255.27;;;;;24.70;37.40;;;;;;2247009;61;8362;-67
2020/12/20 06:31:39;7734814.00;25.78;29734.50;295586.00;0.99;510.33;;;;;24.70;37.50;;;;;;2248435;61;7523;-67
2020/12/20 06:34:14;8004687.00;26.68;32065.96;226753.00;0.76;391.96;;;;;24.60;37.20;;;;;;2247585;61;8408;-67
2020/12/20 06:36:42;7378084.00;24.59;26853.76;198667.00;0.66;343.63;;;;;24.60;37.20;;;;;;2248370;61;8361;-68
2020/12/20 06:39:08;7790910.00;25.97;30208.13;63719.00;0.21;110.91;;;;;24.60;37.30;;;;;;2244634;61;8085;-67
2020/12/20 06:41:37;8786453.00;29.29;39606.50;166858.00;0.56;288.85;;;;;24.60;37.40;;;;;;2244008;61;8278;-68
2020/12/20 06:44:14;8006946.00;26.69;32086.05;167118.00;0.56;289.30;;;;;24.50;37.50;;;;;;2247790;61;8596;-67
2020/12/20 06:46:45;139230720.00;464.10;109382688.00;51025.00;0.17;88.96;;;;;24.50;37.50;;;;;;2246808;61;8079;-67
2020/12/20 06:49:32;8310625.00;27.70;34874.17;208065.00;0.69;359.81;;;;;24.50;37.60;;;;;;2248537;61;7389;-67
2020/12/20 06:52:17;7861737.00;26.21;30814.32;195212.00;0.65;337.68;;;;;24.50;37.70;;;;;;2247442;61;7295;-67
2020/12/20 06:55:08;7380303.00;24.60;26870.99;147729.00;0.49;255.89;;;;;24.50;37.70;;;;;;2248677;61;7018;-70
2020/12/20 06:57:36;145643568.00;485.48;125221208.00;262273.00;0.87;453.06;;;;;24.50;37.70;;;;;;2248196;61;3958;-69
2020/12/20 07:00:05;8289455.00;27.63;34674.06;327063.00;1.09;564.44;;;;;24.50;37.70;;;;;;2247476;61;7146;-68
2020/12/20 07:02:46;8079353.00;26.93;32734.89;229777.00;0.77;397.17;;;;;24.50;37.80;;;;;;2241345;61;7166;-69
2020/12/20 07:05:41;138724880.00;462.42;108193616.00;128631.00;0.43;222.97;;;;;24.40;37.80;;;;;;2242698;61;7205;-67
2020/12/20 07:08:13;7719646.00;25.73;29607.42;176356.00;0.59;305.21;;;;;24.40;37.80;;;;;;2244510;61;7332;-69
2020/12/20 07:10:49;7750467.00;25.83;29866.09;180090.00;0.60;311.64;;;;;24.50;38.40;;;;;;2245839;61;7142;-68
2020/12/20 07:13:36;8655036.00;28.85;38253.92;606351.00;2.02;1045.19;;;;;24.50;37.80;;;;;;2242270;61;7357;-68
2020/12/20 07:16:15;8323665.00;27.75;34997.86;429832.00;1.43;741.10;;;;;24.50;37.70;;;;;;2246020;61;7354;-68
2020/12/20 07:19:00;8481278.00;28.27;36519.32;380002.00;1.27;655.43;;;;;24.50;37.70;;;;;;2246851;61;8331;-68
2020/12/20 07:21:30;8779799.00;29.27;39537.16;448181.00;1.49;772.65;;;;;24.50;37.70;;;;;;2246631;61;6726;-68
2020/12/20 07:24:05;127209328.00;424.03;83403224.00;341460.00;1.14;589.18;;;;;24.50;37.60;;;;;;2246000;61;8230;-69
2020/12/20 07:26:32;8894928.00;29.65;40749.77;269726.00;0.90;465.87;;;;;24.50;37.60;;;;;;2245812;61;6634;-69
2020/12/20 07:28:59;125061776.00;416.87;79246192.00;394200.00;1.31;679.83;;;;;24.50;37.60;;;;;;2243109;61;7068;-69
2020/12/20 07:31:26;8901690.00;29.67;40821.85;312876.00;1.04;540.05;;;;;24.50;37.50;;;;;;2242586;61;7138;-69
2020/12/20 07:33:57;8654789.00;28.85;38251.41;398860.00;1.33;687.85;;;;;24.50;37.50;;;;;;2246197;61;7164;-67
2020/12/20 07:36:24;125589992.00;418.63;80255528.00;310510.00;1.04;535.99;;;;;24.50;37.50;;;;;;2245744;61;7316;-69
2020/12/20 07:38:51;9318850.00;31.06;45456.45;522327.00;1.74;900.27;;;;;24.50;37.50;;;;;;2245297;61;6983;-68
2020/12/20 07:41:19;8769370.00;29.23;39428.67;348700.00;1.16;601.63;;;;;24.60;37.50;;;;;;2246598;61;7868;-68
2020/12/20 07:43:46;9167684.00;30.56;43733.84;519974.00;1.73;896.22;;;;;24.50;37.40;;;;;;2242938;61;7233;-68
2020/12/20 07:46:14;127379304.00;424.60;83738320.00;117948336.00;393.16;66467520.00;;;;;24.60;37.40;;;;;;2242454;61;7532;-68
2020/12/20 07:48:42;10169489.00;33.90;56108.76;775338.00;2.58;1338.15;;;;;24.60;37.40;;;;;;2243307;61;7268;-67
2020/12/20 07:51:15;9299949.00;31.00;45238.34;661456.00;2.20;1140.46;;;;;24.60;37.30;;;;;;2239873;61;6979;-68
2020/12/20 07:53:49;9886319.00;32.95;52377.18;678714.00;2.26;1170.35;;;;;24.60;37.30;;;;;;2248260;61;5638;-68
2020/12/20 07:56:45;132732464.00;442.44;94757152.00;518215.00;1.73;893.19;;;;;24.70;37.40;;;;;;2245947;61;5740;-68
2020/12/20 07:59:17;9608018.00;32.03;48892.00;943382.00;3.14;1632.44;;;;;24.70;37.30;;;;;;2242307;61;7414;-68
2020/12/20 08:01:46;10597601.00;35.33;62117.79;947718.00;3.16;1640.09;;;;;24.70;37.20;;;;;;2246900;61;6877;-68
2020/12/20 08:04:18;128956696.00;429.86;86891032.00;939416.00;3.13;1625.46;;;;;24.70;37.20;;;;;;2243259;61;7454;-68
2020/12/20 08:06:52;10059782.00;33.53;54640.52;684003.00;2.28;1179.51;;;;;24.80;37.20;;;;;;2244567;61;7298;-68
2020/12/20 08:09:27;10077220.00;33.59;54871.96;771173.00;2.57;1330.89;;;;;24.80;37.10;;;;;;2245818;61;7192;-68
2020/12/20 08:11:54;127275080.00;424.25;83532752.00;691342.00;2.30;1192.23;;;;;24.90;37.10;;;;;;2247721;61;5947;-68
2020/12/20 08:14:22;10424368.00;34.75;59632.03;894582.00;2.98;1546.61;;;;;25.00;36.90;;;;;;2241709;61;7245;-68
2020/12/20 08:16:50;127610448.00;425.37;84195456.00;758584.00;2.53;1308.99;;;;;25.10;36.70;;;;;;2240551;58;7949;-68
2020/12/20 08:19:21;128882408.00;429.61;86740816.00;969571.00;3.23;1678.65;;;;;25.20;36.60;;;;;;2243853;61;7351;-68
2020/12/20 08:21:57;9593129.00;31.98;48710.54;814969.00;2.72;1407.24;;;;;25.20;36.40;;;;;;2242031;61;6967;-68
2020/12/20 08:24:30;9980798.00;33.27;53601.14;872594.00;2.91;1508.04;;;;;25.30;36.50;;;;;;2245833;61;7059;-67
2020/12/20 08:26:58;10824458.00;36.08;65486.95;823354.00;2.74;1421.88;;;;;25.30;36.20;;;;;;2248557;61;5713;-68
2020/12/20 08:29:25;128829904.00;429.43;86634736.00;857328.00;2.86;1481.29;;;;;25.30;36.40;;;;;;2242962;61;6903;-69
2020/12/20 08:31:52;10608941.00;35.36;62283.12;1037183.00;3.46;1798.44;;;;;25.30;36.40;;;;;;2243589;61;7237;-69
2020/12/20 08:34:20;127225408.00;424.08;83434888.00;695660.00;2.32;1199.71;;;;;25.40;36.30;;;;;;2240531;61;7227;-70
2020/12/20 08:36:52;129211952.00;430.71;87408536.00;1122156.00;3.74;1950.09;;;;;25.40;36.30;;;;;;2247060;61;5516;-70
2020/12/20 08:39:23;10352701.00;34.51;58625.35;1010706.00;3.37;1751.44;;;;;25.50;36.10;;;;;;2243162;61;7605;-70
2020/12/20 08:42:01;132965416.00;443.22;95257416.00;911060.00;3.04;1575.55;;;;;25.50;36.00;;;;;;2244369;61;5690;-70
2020/12/20 08:44:27;11394997.00;37.98;74549.32;1089941.00;3.63;1892.44;;;;;25.60;35.90;;;;;;2245906;61;6362;-71
2020/12/20 08:47:06;128702544.00;429.01;86377808.00;860951.00;2.87;1487.64;;;;;25.60;35.70;;;;;;2246559;61;7474;-69
2020/12/20 08:49:33;140098816.00;467.00;111443600.00;1027038.00;3.42;1780.42;;;;;25.80;35.70;;;;;;2245761;61;6953;-69
2020/12/20 08:52:11;128217200.00;427.39;85403320.00;1127688.00;3.76;1960.01;;;;;25.90;35.40;;;;;;2237897;61;7897;-66